sensor_id;sensor_type;location;lat;lon;timestamp;P1;durP1;ratioP1;P2;durP2;ratioP2
25531;SDS011;13429;48.816;9.118;2023-08-21T00:00:51;6.20;;;4.88;;
25531;SDS011;13429;48.816;9.118;2023-08-21T00:03:17;5.43;;;4.43;;
25531;SDS011;13429;48.816;9.118;2023-08-21T00:05:43;6.82;;;5.00;;
25531;SDS011;13429;48.816;9.118;2023-08-21T00:08:09;10.38;;;4.95;;
25531;SDS011;13429;48.816;9.118;2023-08-21T00:10:38;7.60;;;5.22;;
25531;SDS011;13429;48.816;9.118;2023-08-21T00:13:06;6.22;;;4.80;;
25531;SDS011;13429;48.816;9.118;2023-08-21T00:15:32;8.82;;;4.85;;
25531;SDS011;13429;48.816;9.118;2023-08-21T00:17:58;7.20;;;4.95;;
25531;SDS011;13429;48.816;9.118;2023-08-21T00:20:25;7.18;;;4.80;;
25531;SDS011;13429;48.816;9.118;2023-08-21T00:22:51;8.40;;;5.32;;
25531;SDS011;13429;48.816;9.118;2023-08-21T00:25:17;8.07;;;4.90;;
25531;SDS011;13429;48.816;9.118;2023-08-21T00:27:43;7.22;;;5.13;;
25531;SDS011;13429;48.816;9.118;2023-08-21T00:30:10;11.10;;;5.55;;
25531;SDS011;13429;48.816;9.118;2023-08-21T00:32:36;6.18;;;4.75;;
25531;SDS011;13429;48.816;9.118;2023-08-21T00:35:02;8.27;;;5.43;;
25531;SDS011;13429;48.816;9.118;2023-08-21T00:37:28;6.10;;;4.43;;
25531;SDS011;13429;48.816;9.118;2023-08-21T00:39:54;7.45;;;4.93;;
25531;SDS011;13429;48.816;9.118;2023-08-21T00:42:20;8.40;;;4.57;;
25531;SDS011;13429;48.816;9.118;2023-08-21T00:44:46;8.98;;;5.32;;
25531;SDS011;13429;48.816;9.118;2023-08-21T00:47:12;5.95;;;4.28;;
25531;SDS011;13429;48.816;9.118;2023-08-21T00:49:38;7.13;;;5.15;;
25531;SDS011;13429;48.816;9.118;2023-08-21T00:52:06;7.40;;;5.25;;
25531;SDS011;13429;48.816;9.118;2023-08-21T00:54:32;7.50;;;5.15;;
25531;SDS011;13429;48.816;9.118;2023-08-21T00:56:59;10.35;;;5.05;;
25531;SDS011;13429;48.816;9.118;2023-08-21T00:59:25;9.23;;;4.95;;
25531;SDS011;13429;48.816;9.118;2023-08-21T01:01:51;7.68;;;4.25;;
25531;SDS011;13429;48.816;9.118;2023-08-21T01:04:17;6.47;;;4.40;;
25531;SDS011;13429;48.816;9.118;2023-08-21T01:06:43;8.98;;;5.13;;
25531;SDS011;13429;48.816;9.118;2023-08-21T01:11:54;8.27;;;4.88;;
25531;SDS011;13429;48.816;9.118;2023-08-21T01:14:28;7.57;;;4.90;;
25531;SDS011;13429;48.816;9.118;2023-08-21T01:16:55;7.03;;;4.10;;
25531;SDS011;13429;48.816;9.118;2023-08-21T01:19:35;8.40;;;4.55;;
25531;SDS011;13429;48.816;9.118;2023-08-21T01:22:02;7.53;;;5.15;;
25531;SDS011;13429;48.816;9.118;2023-08-21T01:24:28;5.63;;;4.40;;
25531;SDS011;13429;48.816;9.118;2023-08-21T01:26:54;6.78;;;4.78;;
25531;SDS011;13429;48.816;9.118;2023-08-21T01:29:21;7.18;;;5.32;;
25531;SDS011;13429;48.816;9.118;2023-08-21T01:31:50;7.22;;;5.05;;
25531;SDS011;13429;48.816;9.118;2023-08-21T01:34:16;6.20;;;5.03;;
25531;SDS011;13429;48.816;9.118;2023-08-21T01:36:42;8.10;;;5.05;;
25531;SDS011;13429;48.816;9.118;2023-08-21T01:39:09;6.53;;;4.50;;
25531;SDS011;13429;48.816;9.118;2023-08-21T01:41:35;8.13;;;5.28;;
25531;SDS011;13429;48.816;9.118;2023-08-21T01:44:01;10.90;;;4.95;;
25531;SDS011;13429;48.816;9.118;2023-08-21T01:46:27;10.63;;;5.32;;
25531;SDS011;13429;48.816;9.118;2023-08-21T01:48:53;8.68;;;5.90;;
25531;SDS011;13429;48.816;9.118;2023-08-21T01:51:19;7.50;;;5.28;;
25531;SDS011;13429;48.816;9.118;2023-08-21T01:53:45;7.13;;;4.95;;
25531;SDS011;13429;48.816;9.118;2023-08-21T01:56:12;7.22;;;5.07;;
25531;SDS011;13429;48.816;9.118;2023-08-21T01:58:38;7.43;;;4.85;;
25531;SDS011;13429;48.816;9.118;2023-08-21T02:01:04;6.60;;;4.97;;
25531;SDS011;13429;48.816;9.118;2023-08-21T02:03:30;7.38;;;4.70;;
25531;SDS011;13429;48.816;9.118;2023-08-21T02:05:56;7.30;;;5.18;;
25531;SDS011;13429;48.816;9.118;2023-08-21T02:08:27;7.32;;;5.18;;
25531;SDS011;13429;48.816;9.118;2023-08-21T02:10:53;6.70;;;5.43;;
25531;SDS011;13429;48.816;9.118;2023-08-21T02:13:19;9.45;;;5.55;;
25531;SDS011;13429;48.816;9.118;2023-08-21T02:15:45;7.55;;;5.30;;
25531;SDS011;13429;48.816;9.118;2023-08-21T02:18:11;8.15;;;5.03;;
25531;SDS011;13429;48.816;9.118;2023-08-21T02:20:37;7.50;;;5.53;;
25531;SDS011;13429;48.816;9.118;2023-08-21T02:23:03;6.90;;;5.22;;
25531;SDS011;13429;48.816;9.118;2023-08-21T02:25:29;10.20;;;5.28;;
25531;SDS011;13429;48.816;9.118;2023-08-21T02:27:55;8.23;;;5.38;;
25531;SDS011;13429;48.816;9.118;2023-08-21T02:30:21;8.13;;;5.40;;
25531;SDS011;13429;48.816;9.118;2023-08-21T02:32:50;10.77;;;6.07;;
25531;SDS011;13429;48.816;9.118;2023-08-21T02:35:16;9.70;;;5.40;;
25531;SDS011;13429;48.816;9.118;2023-08-21T02:37:42;6.95;;;5.63;;
25531;SDS011;13429;48.816;9.118;2023-08-21T02:40:08;7.75;;;5.60;;
25531;SDS011;13429;48.816;9.118;2023-08-21T02:42:34;8.52;;;5.75;;
25531;SDS011;13429;48.816;9.118;2023-08-21T02:45:01;7.90;;;6.05;;
25531;SDS011;13429;48.816;9.118;2023-08-21T02:47:32;8.60;;;6.47;;
25531;SDS011;13429;48.816;9.118;2023-08-21T02:49:58;10.40;;;6.05;;
25531;SDS011;13429;48.816;9.118;2023-08-21T02:52:24;11.25;;;5.72;;
25531;SDS011;13429;48.816;9.118;2023-08-21T02:54:50;7.47;;;6.00;;
25531;SDS011;13429;48.816;9.118;2023-08-21T02:57:16;7.57;;;5.18;;
25531;SDS011;13429;48.816;9.118;2023-08-21T02:59:42;6.78;;;5.38;;
25531;SDS011;13429;48.816;9.118;2023-08-21T03:02:08;9.65;;;6.32;;
25531;SDS011;13429;48.816;9.118;2023-08-21T03:04:34;7.32;;;5.38;;
25531;SDS011;13429;48.816;9.118;2023-08-21T03:07:00;8.30;;;5.88;;
25531;SDS011;13429;48.816;9.118;2023-08-21T03:09:27;7.65;;;5.43;;
25531;SDS011;13429;48.816;9.118;2023-08-21T03:11:53;9.88;;;5.82;;
25531;SDS011;13429;48.816;9.118;2023-08-21T03:14:19;10.43;;;5.53;;
25531;SDS011;13429;48.816;9.118;2023-08-21T03:16:45;10.88;;;6.65;;
25531;SDS011;13429;48.816;9.118;2023-08-21T03:19:11;7.22;;;5.60;;
25531;SDS011;13429;48.816;9.118;2023-08-21T03:21:37;10.40;;;6.20;;
25531;SDS011;13429;48.816;9.118;2023-08-21T03:24:03;9.77;;;6.68;;
25531;SDS011;13429;48.816;9.118;2023-08-21T03:26:29;7.57;;;6.32;;
25531;SDS011;13429;48.816;9.118;2023-08-21T03:28:55;9.23;;;6.18;;
25531;SDS011;13429;48.816;9.118;2023-08-21T03:31:21;8.45;;;6.07;;
25531;SDS011;13429;48.816;9.118;2023-08-21T03:33:47;7.45;;;6.15;;
25531;SDS011;13429;48.816;9.118;2023-08-21T03:36:14;10.43;;;6.55;;
25531;SDS011;13429;48.816;9.118;2023-08-21T03:38:40;9.52;;;6.07;;
25531;SDS011;13429;48.816;9.118;2023-08-21T03:41:06;8.68;;;6.40;;
25531;SDS011;13429;48.816;9.118;2023-08-21T03:43:32;9.93;;;6.80;;
25531;SDS011;13429;48.816;9.118;2023-08-21T03:45:58;8.82;;;6.32;;
25531;SDS011;13429;48.816;9.118;2023-08-21T03:48:24;9.40;;;6.10;;
25531;SDS011;13429;48.816;9.118;2023-08-21T03:50:50;13.93;;;6.28;;
25531;SDS011;13429;48.816;9.118;2023-08-21T03:53:17;10.85;;;6.97;;
25531;SDS011;13429;48.816;9.118;2023-08-21T03:55:43;10.38;;;7.05;;
25531;SDS011;13429;48.816;9.118;2023-08-21T03:58:09;9.32;;;7.07;;
25531;SDS011;13429;48.816;9.118;2023-08-21T04:00:35;8.60;;;5.90;;
25531;SDS011;13429;48.816;9.118;2023-08-21T04:03:02;8.20;;;5.75;;
25531;SDS011;13429;48.816;9.118;2023-08-21T04:05:28;9.57;;;6.40;;
25531;SDS011;13429;48.816;9.118;2023-08-21T04:07:54;6.22;;;5.03;;
25531;SDS011;13429;48.816;9.118;2023-08-21T04:10:20;9.18;;;6.40;;
25531;SDS011;13429;48.816;9.118;2023-08-21T04:12:46;7.60;;;5.55;;
25531;SDS011;13429;48.816;9.118;2023-08-21T04:15:12;14.23;;;6.28;;
25531;SDS011;13429;48.816;9.118;2023-08-21T04:17:38;8.13;;;5.68;;
25531;SDS011;13429;48.816;9.118;2023-08-21T04:20:04;8.48;;;6.05;;
25531;SDS011;13429;48.816;9.118;2023-08-21T04:22:30;11.75;;;7.03;;
25531;SDS011;13429;48.816;9.118;2023-08-21T04:24:56;9.20;;;6.72;;
25531;SDS011;13429;48.816;9.118;2023-08-21T04:27:22;8.60;;;6.00;;
25531;SDS011;13429;48.816;9.118;2023-08-21T04:29:48;10.32;;;7.25;;
25531;SDS011;13429;48.816;9.118;2023-08-21T04:32:14;9.27;;;6.80;;
25531;SDS011;13429;48.816;9.118;2023-08-21T04:34:40;9.10;;;6.20;;
25531;SDS011;13429;48.816;9.118;2023-08-21T04:37:06;7.97;;;5.68;;
25531;SDS011;13429;48.816;9.118;2023-08-21T04:39:32;7.90;;;5.60;;
25531;SDS011;13429;48.816;9.118;2023-08-21T04:41:59;9.35;;;6.13;;
25531;SDS011;13429;48.816;9.118;2023-08-21T04:44:25;8.90;;;6.18;;
25531;SDS011;13429;48.816;9.118;2023-08-21T04:46:51;9.32;;;5.68;;
25531;SDS011;13429;48.816;9.118;2023-08-21T04:49:17;8.80;;;6.95;;
25531;SDS011;13429;48.816;9.118;2023-08-21T04:51:43;10.82;;;6.43;;
25531;SDS011;13429;48.816;9.118;2023-08-21T04:54:09;9.77;;;6.03;;
25531;SDS011;13429;48.816;9.118;2023-08-21T04:56:35;9.48;;;6.20;;
25531;SDS011;13429;48.816;9.118;2023-08-21T04:59:02;9.45;;;5.95;;
25531;SDS011;13429;48.816;9.118;2023-08-21T05:01:28;10.98;;;6.68;;
25531;SDS011;13429;48.816;9.118;2023-08-21T05:03:54;10.70;;;6.60;;
25531;SDS011;13429;48.816;9.118;2023-08-21T05:06:20;8.48;;;5.93;;
25531;SDS011;13429;48.816;9.118;2023-08-21T05:08:46;9.73;;;5.95;;
25531;SDS011;13429;48.816;9.118;2023-08-21T05:11:12;12.77;;;6.05;;
25531;SDS011;13429;48.816;9.118;2023-08-21T05:13:38;6.60;;;5.53;;
25531;SDS011;13429;48.816;9.118;2023-08-21T05:16:04;7.30;;;5.97;;
25531;SDS011;13429;48.816;9.118;2023-08-21T05:18:30;7.32;;;6.18;;
25531;SDS011;13429;48.816;9.118;2023-08-21T05:20:56;10.10;;;6.05;;
25531;SDS011;13429;48.816;9.118;2023-08-21T05:23:22;10.50;;;6.25;;
25531;SDS011;13429;48.816;9.118;2023-08-21T05:25:48;9.07;;;6.25;;
25531;SDS011;13429;48.816;9.118;2023-08-21T05:28:15;11.93;;;6.13;;
25531;SDS011;13429;48.816;9.118;2023-08-21T05:30:41;7.93;;;5.85;;
25531;SDS011;13429;48.816;9.118;2023-08-21T05:33:07;8.23;;;6.35;;
25531;SDS011;13429;48.816;9.118;2023-08-21T05:35:36;8.38;;;6.22;;
25531;SDS011;13429;48.816;9.118;2023-08-21T05:38:02;8.77;;;5.93;;
25531;SDS011;13429;48.816;9.118;2023-08-21T05:40:28;10.88;;;6.63;;
25531;SDS011;13429;48.816;9.118;2023-08-21T05:42:54;11.30;;;6.25;;
25531;SDS011;13429;48.816;9.118;2023-08-21T05:45:21;9.20;;;6.38;;
25531;SDS011;13429;48.816;9.118;2023-08-21T05:47:47;7.75;;;6.03;;
25531;SDS011;13429;48.816;9.118;2023-08-21T05:50:13;8.02;;;6.05;;
25531;SDS011;13429;48.816;9.118;2023-08-21T05:52:39;11.13;;;6.63;;
25531;SDS011;13429;48.816;9.118;2023-08-21T05:55:05;9.43;;;5.95;;
25531;SDS011;13429;48.816;9.118;2023-08-21T05:57:31;9.30;;;5.90;;
25531;SDS011;13429;48.816;9.118;2023-08-21T05:59:57;8.45;;;6.60;;
25531;SDS011;13429;48.816;9.118;2023-08-21T06:02:23;9.10;;;6.07;;
25531;SDS011;13429;48.816;9.118;2023-08-21T06:04:49;9.07;;;6.20;;
25531;SDS011;13429;48.816;9.118;2023-08-21T06:07:15;6.45;;;5.75;;
25531;SDS011;13429;48.816;9.118;2023-08-21T06:09:41;10.82;;;5.55;;
25531;SDS011;13429;48.816;9.118;2023-08-21T06:12:08;6.75;;;5.43;;
25531;SDS011;13429;48.816;9.118;2023-08-21T06:14:34;8.85;;;6.00;;
25531;SDS011;13429;48.816;9.118;2023-08-21T06:17:01;8.32;;;5.60;;
25531;SDS011;13429;48.816;9.118;2023-08-21T06:19:27;7.82;;;5.40;;
25531;SDS011;13429;48.816;9.118;2023-08-21T06:21:56;8.60;;;5.97;;
25531;SDS011;13429;48.816;9.118;2023-08-21T06:24:23;7.93;;;5.60;;
25531;SDS011;13429;48.816;9.118;2023-08-21T06:26:50;7.20;;;5.55;;
25531;SDS011;13429;48.816;9.118;2023-08-21T06:29:16;6.65;;;5.15;;
25531;SDS011;13429;48.816;9.118;2023-08-21T06:31:42;7.70;;;5.43;;
25531;SDS011;13429;48.816;9.118;2023-08-21T06:34:08;8.05;;;5.35;;
25531;SDS011;13429;48.816;9.118;2023-08-21T06:36:34;7.53;;;4.90;;
25531;SDS011;13429;48.816;9.118;2023-08-21T06:39:01;9.80;;;5.93;;
25531;SDS011;13429;48.816;9.118;2023-08-21T06:41:27;12.60;;;5.35;;
25531;SDS011;13429;48.816;9.118;2023-08-21T06:43:53;6.03;;;4.65;;
25531;SDS011;13429;48.816;9.118;2023-08-21T06:46:19;7.13;;;4.75;;
25531;SDS011;13429;48.816;9.118;2023-08-21T06:48:45;12.25;;;4.97;;
25531;SDS011;13429;48.816;9.118;2023-08-21T06:51:11;8.00;;;4.85;;
25531;SDS011;13429;48.816;9.118;2023-08-21T06:53:37;8.77;;;5.50;;
25531;SDS011;13429;48.816;9.118;2023-08-21T06:56:03;7.35;;;5.00;;
25531;SDS011;13429;48.816;9.118;2023-08-21T06:58:29;9.50;;;5.60;;
25531;SDS011;13429;48.816;9.118;2023-08-21T07:00:56;8.90;;;5.05;;
25531;SDS011;13429;48.816;9.118;2023-08-21T07:03:22;7.47;;;5.18;;
25531;SDS011;13429;48.816;9.118;2023-08-21T07:05:57;8.85;;;4.43;;
25531;SDS011;13429;48.816;9.118;2023-08-21T07:08:24;6.55;;;4.78;;
25531;SDS011;13429;48.816;9.118;2023-08-21T07:10:50;9.30;;;5.28;;
25531;SDS011;13429;48.816;9.118;2023-08-21T07:13:16;10.07;;;5.90;;
25531;SDS011;13429;48.816;9.118;2023-08-21T07:15:42;9.45;;;5.78;;
25531;SDS011;13429;48.816;9.118;2023-08-21T07:18:08;8.32;;;4.90;;
25531;SDS011;13429;48.816;9.118;2023-08-21T07:20:34;11.02;;;5.07;;
25531;SDS011;13429;48.816;9.118;2023-08-21T07:23:01;6.95;;;4.82;;
25531;SDS011;13429;48.816;9.118;2023-08-21T07:25:27;8.82;;;5.70;;
25531;SDS011;13429;48.816;9.118;2023-08-21T07:27:53;7.55;;;5.15;;
25531;SDS011;13429;48.816;9.118;2023-08-21T07:30:22;8.88;;;5.00;;
25531;SDS011;13429;48.816;9.118;2023-08-21T07:32:48;8.32;;;5.00;;
25531;SDS011;13429;48.816;9.118;2023-08-21T07:35:15;9.35;;;5.53;;
25531;SDS011;13429;48.816;9.118;2023-08-21T07:37:44;9.85;;;4.68;;
25531;SDS011;13429;48.816;9.118;2023-08-21T07:40:10;10.35;;;5.15;;
25531;SDS011;13429;48.816;9.118;2023-08-21T07:42:36;7.88;;;4.90;;
25531;SDS011;13429;48.816;9.118;2023-08-21T07:45:02;9.73;;;4.70;;
25531;SDS011;13429;48.816;9.118;2023-08-21T07:47:28;7.60;;;5.05;;
25531;SDS011;13429;48.816;9.118;2023-08-21T07:49:55;8.63;;;5.05;;
25531;SDS011;13429;48.816;9.118;2023-08-21T07:52:22;7.63;;;4.50;;
25531;SDS011;13429;48.816;9.118;2023-08-21T07:54:52;8.57;;;5.32;;
25531;SDS011;13429;48.816;9.118;2023-08-21T07:57:18;11.83;;;5.30;;
25531;SDS011;13429;48.816;9.118;2023-08-21T07:59:45;8.20;;;5.10;;
25531;SDS011;13429;48.816;9.118;2023-08-21T08:02:11;8.18;;;5.75;;
25531;SDS011;13429;48.816;9.118;2023-08-21T08:04:38;7.40;;;4.63;;
25531;SDS011;13429;48.816;9.118;2023-08-21T08:07:04;7.47;;;4.75;;
25531;SDS011;13429;48.816;9.118;2023-08-21T08:09:30;8.45;;;5.20;;
25531;SDS011;13429;48.816;9.118;2023-08-21T08:11:56;5.32;;;4.35;;
25531;SDS011;13429;48.816;9.118;2023-08-21T08:14:22;7.90;;;5.00;;
25531;SDS011;13429;48.816;9.118;2023-08-21T08:16:48;7.93;;;5.40;;
25531;SDS011;13429;48.816;9.118;2023-08-21T08:19:14;8.38;;;5.28;;
25531;SDS011;13429;48.816;9.118;2023-08-21T08:21:40;7.15;;;5.28;;
25531;SDS011;13429;48.816;9.118;2023-08-21T08:24:06;6.55;;;4.95;;
25531;SDS011;13429;48.816;9.118;2023-08-21T08:26:32;7.88;;;4.90;;
25531;SDS011;13429;48.816;9.118;2023-08-21T08:28:58;9.63;;;4.97;;
25531;SDS011;13429;48.816;9.118;2023-08-21T08:31:24;9.13;;;5.03;;
25531;SDS011;13429;48.816;9.118;2023-08-21T08:33:52;8.73;;;5.05;;
25531;SDS011;13429;48.816;9.118;2023-08-21T08:36:21;9.40;;;5.55;;
25531;SDS011;13429;48.816;9.118;2023-08-21T08:38:47;11.27;;;4.97;;
25531;SDS011;13429;48.816;9.118;2023-08-21T08:41:24;7.28;;;5.32;;
25531;SDS011;13429;48.816;9.118;2023-08-21T08:43:53;7.50;;;4.97;;
25531;SDS011;13429;48.816;9.118;2023-08-21T08:46:23;6.65;;;5.07;;
25531;SDS011;13429;48.816;9.118;2023-08-21T08:48:50;7.95;;;5.38;;
25531;SDS011;13429;48.816;9.118;2023-08-21T08:51:16;8.65;;;5.85;;
25531;SDS011;13429;48.816;9.118;2023-08-21T08:53:42;6.03;;;4.85;;
25531;SDS011;13429;48.816;9.118;2023-08-21T08:56:09;11.13;;;5.43;;
25531;SDS011;13429;48.816;9.118;2023-08-21T08:58:35;8.98;;;5.07;;
25531;SDS011;13429;48.816;9.118;2023-08-21T09:01:02;8.02;;;5.20;;
25531;SDS011;13429;48.816;9.118;2023-08-21T09:03:28;6.18;;;4.55;;
25531;SDS011;13429;48.816;9.118;2023-08-21T09:05:55;10.57;;;5.15;;
25531;SDS011;13429;48.816;9.118;2023-08-21T09:08:25;7.93;;;5.55;;
25531;SDS011;13429;48.816;9.118;2023-08-21T09:10:51;6.82;;;5.10;;
25531;SDS011;13429;48.816;9.118;2023-08-21T09:13:18;8.23;;;4.22;;
25531;SDS011;13429;48.816;9.118;2023-08-21T09:15:45;8.43;;;5.15;;
25531;SDS011;13429;48.816;9.118;2023-08-21T09:18:15;9.48;;;5.38;;
25531;SDS011;13429;48.816;9.118;2023-08-21T09:20:41;8.88;;;5.35;;
25531;SDS011;13429;48.816;9.118;2023-08-21T09:23:08;7.95;;;5.65;;
25531;SDS011;13429;48.816;9.118;2023-08-21T09:25:38;6.72;;;4.82;;
25531;SDS011;13429;48.816;9.118;2023-08-21T09:28:05;8.02;;;5.90;;
25531;SDS011;13429;48.816;9.118;2023-08-21T09:30:47;7.93;;;5.13;;
25531;SDS011;13429;48.816;9.118;2023-08-21T09:33:16;10.02;;;5.57;;
25531;SDS011;13429;48.816;9.118;2023-08-21T09:35:43;18.08;;;5.13;;
25531;SDS011;13429;48.816;9.118;2023-08-21T09:38:09;7.80;;;5.03;;
25531;SDS011;13429;48.816;9.118;2023-08-21T09:40:39;15.73;;;5.93;;
25531;SDS011;13429;48.816;9.118;2023-08-21T09:45:31;8.43;;;5.70;;
25531;SDS011;13429;48.816;9.118;2023-08-21T09:47:59;8.65;;;4.90;;
25531;SDS011;13429;48.816;9.118;2023-08-21T09:50:25;6.80;;;4.38;;
25531;SDS011;13429;48.816;9.118;2023-08-21T09:52:51;9.35;;;4.60;;
25531;SDS011;13429;48.816;9.118;2023-08-21T09:55:18;8.07;;;4.65;;
25531;SDS011;13429;48.816;9.118;2023-08-21T09:57:44;7.85;;;4.35;;
25531;SDS011;13429;48.816;9.118;2023-08-21T10:00:11;4.55;;;3.70;;
25531;SDS011;13429;48.816;9.118;2023-08-21T10:02:49;12.18;;;5.05;;
25531;SDS011;13429;48.816;9.118;2023-08-21T10:05:16;3.97;;;3.55;;
25531;SDS011;13429;48.816;9.118;2023-08-21T10:07:43;6.18;;;3.78;;
25531;SDS011;13429;48.816;9.118;2023-08-21T10:10:10;8.35;;;3.92;;
25531;SDS011;13429;48.816;9.118;2023-08-21T10:12:37;8.73;;;3.95;;
25531;SDS011;13429;48.816;9.118;2023-08-21T10:15:03;11.65;;;4.68;;
25531;SDS011;13429;48.816;9.118;2023-08-21T10:17:30;7.50;;;4.35;;
25531;SDS011;13429;48.816;9.118;2023-08-21T10:20:02;14.10;;;4.20;;
25531;SDS011;13429;48.816;9.118;2023-08-21T10:22:48;4.20;;;3.50;;
25531;SDS011;13429;48.816;9.118;2023-08-21T10:25:18;6.82;;;4.53;;
25531;SDS011;13429;48.816;9.118;2023-08-21T10:27:49;8.80;;;4.53;;
25531;SDS011;13429;48.816;9.118;2023-08-21T10:30:15;7.22;;;4.30;;
25531;SDS011;13429;48.816;9.118;2023-08-21T10:32:45;7.18;;;4.15;;
25531;SDS011;13429;48.816;9.118;2023-08-21T10:35:15;10.50;;;4.55;;
25531;SDS011;13429;48.816;9.118;2023-08-21T10:40:28;8.70;;;4.15;;
25531;SDS011;13429;48.816;9.118;2023-08-21T10:42:55;6.70;;;4.60;;
25531;SDS011;13429;48.816;9.118;2023-08-21T10:45:21;9.20;;;5.10;;
25531;SDS011;13429;48.816;9.118;2023-08-21T10:47:47;7.05;;;4.10;;
25531;SDS011;13429;48.816;9.118;2023-08-21T10:50:15;9.07;;;4.93;;
25531;SDS011;13429;48.816;9.118;2023-08-21T10:52:42;7.80;;;4.90;;
25531;SDS011;13429;48.816;9.118;2023-08-21T10:55:10;7.30;;;4.68;;
25531;SDS011;13429;48.816;9.118;2023-08-21T10:57:36;8.95;;;5.68;;
25531;SDS011;13429;48.816;9.118;2023-08-21T11:00:06;9.13;;;5.20;;
25531;SDS011;13429;48.816;9.118;2023-08-21T11:02:37;9.05;;;5.50;;
25531;SDS011;13429;48.816;9.118;2023-08-21T11:05:03;7.85;;;4.47;;
25531;SDS011;13429;48.816;9.118;2023-08-21T11:07:29;9.70;;;4.80;;
25531;SDS011;13429;48.816;9.118;2023-08-21T11:09:56;10.82;;;5.30;;
25531;SDS011;13429;48.816;9.118;2023-08-21T11:12:23;7.50;;;4.10;;
25531;SDS011;13429;48.816;9.118;2023-08-21T11:14:50;6.97;;;4.75;;
25531;SDS011;13429;48.816;9.118;2023-08-21T11:17:16;10.27;;;5.22;;
25531;SDS011;13429;48.816;9.118;2023-08-21T11:19:43;5.72;;;3.83;;
25531;SDS011;13429;48.816;9.118;2023-08-21T11:22:11;5.57;;;4.00;;
25531;SDS011;13429;48.816;9.118;2023-08-21T11:27:03;7.35;;;4.82;;
25531;SDS011;13429;48.816;9.118;2023-08-21T11:29:32;12.27;;;4.47;;
25531;SDS011;13429;48.816;9.118;2023-08-21T11:32:02;7.00;;;3.97;;
25531;SDS011;13429;48.816;9.118;2023-08-21T11:34:28;7.25;;;4.05;;
25531;SDS011;13429;48.816;9.118;2023-08-21T11:36:54;7.60;;;4.43;;
25531;SDS011;13429;48.816;9.118;2023-08-21T11:39:21;6.50;;;4.57;;
25531;SDS011;13429;48.816;9.118;2023-08-21T11:41:56;7.40;;;4.75;;
25531;SDS011;13429;48.816;9.118;2023-08-21T11:44:23;9.18;;;4.97;;
25531;SDS011;13429;48.816;9.118;2023-08-21T11:46:52;6.72;;;4.25;;
25531;SDS011;13429;48.816;9.118;2023-08-21T11:49:18;4.78;;;4.28;;
25531;SDS011;13429;48.816;9.118;2023-08-21T11:51:47;8.20;;;4.45;;
25531;SDS011;13429;48.816;9.118;2023-08-21T11:54:13;8.75;;;4.78;;
25531;SDS011;13429;48.816;9.118;2023-08-21T11:56:39;6.72;;;4.47;;
25531;SDS011;13429;48.816;9.118;2023-08-21T11:59:08;8.85;;;5.00;;
25531;SDS011;13429;48.816;9.118;2023-08-21T12:01:34;8.57;;;4.47;;
25531;SDS011;13429;48.816;9.118;2023-08-21T12:04:00;9.70;;;4.82;;
25531;SDS011;13429;48.816;9.118;2023-08-21T12:06:26;6.22;;;4.60;;
25531;SDS011;13429;48.816;9.118;2023-08-21T12:08:57;9.07;;;4.63;;
25531;SDS011;13429;48.816;9.118;2023-08-21T12:11:23;8.35;;;5.00;;
25531;SDS011;13429;48.816;9.118;2023-08-21T12:13:50;7.65;;;5.32;;
25531;SDS011;13429;48.816;9.118;2023-08-21T12:16:17;8.00;;;4.90;;
25531;SDS011;13429;48.816;9.118;2023-08-21T12:18:43;7.07;;;4.40;;
25531;SDS011;13429;48.816;9.118;2023-08-21T12:21:09;7.55;;;4.40;;
25531;SDS011;13429;48.816;9.118;2023-08-21T12:23:35;16.10;;;4.15;;
25531;SDS011;13429;48.816;9.118;2023-08-21T12:26:01;7.07;;;4.05;;
25531;SDS011;13429;48.816;9.118;2023-08-21T12:28:27;7.95;;;4.40;;
25531;SDS011;13429;48.816;9.118;2023-08-21T12:30:53;6.20;;;4.70;;
25531;SDS011;13429;48.816;9.118;2023-08-21T12:33:19;9.02;;;4.25;;
25531;SDS011;13429;48.816;9.118;2023-08-21T12:35:45;10.10;;;5.15;;
25531;SDS011;13429;48.816;9.118;2023-08-21T12:38:11;8.27;;;4.78;;
25531;SDS011;13429;48.816;9.118;2023-08-21T12:40:38;8.38;;;4.40;;
25531;SDS011;13429;48.816;9.118;2023-08-21T12:43:04;13.98;;;4.55;;
25531;SDS011;13429;48.816;9.118;2023-08-21T12:45:30;7.30;;;4.40;;
25531;SDS011;13429;48.816;9.118;2023-08-21T12:47:56;6.90;;;4.60;;
25531;SDS011;13429;48.816;9.118;2023-08-21T12:50:22;6.63;;;4.38;;
25531;SDS011;13429;48.816;9.118;2023-08-21T12:52:48;9.05;;;4.20;;
25531;SDS011;13429;48.816;9.118;2023-08-21T12:55:14;10.60;;;4.85;;
25531;SDS011;13429;48.816;9.118;2023-08-21T12:57:40;5.80;;;4.07;;
25531;SDS011;13429;48.816;9.118;2023-08-21T13:00:05;9.05;;;4.15;;
25531;SDS011;13429;48.816;9.118;2023-08-21T13:02:32;6.18;;;3.92;;
25531;SDS011;13429;48.816;9.118;2023-08-21T13:04:57;10.45;;;4.28;;
25531;SDS011;13429;48.816;9.118;2023-08-21T13:07:23;5.85;;;3.72;;
25531;SDS011;13429;48.816;9.118;2023-08-21T13:09:48;19.98;;;4.65;;
25531;SDS011;13429;48.816;9.118;2023-08-21T13:12:14;12.95;;;4.57;;
25531;SDS011;13429;48.816;9.118;2023-08-21T13:14:40;8.45;;;4.68;;
25531;SDS011;13429;48.816;9.118;2023-08-21T13:17:06;7.40;;;4.45;;
25531;SDS011;13429;48.816;9.118;2023-08-21T13:19:31;6.88;;;4.43;;
25531;SDS011;13429;48.816;9.118;2023-08-21T13:21:57;16.40;;;5.13;;
25531;SDS011;13429;48.816;9.118;2023-08-21T13:24:22;6.20;;;4.40;;
25531;SDS011;13429;48.816;9.118;2023-08-21T13:26:48;8.88;;;4.88;;
25531;SDS011;13429;48.816;9.118;2023-08-21T13:29:14;8.32;;;3.92;;
25531;SDS011;13429;48.816;9.118;2023-08-21T13:31:39;7.43;;;4.00;;
25531;SDS011;13429;48.816;9.118;2023-08-21T13:34:05;7.03;;;4.10;;
25531;SDS011;13429;48.816;9.118;2023-08-21T13:36:31;5.25;;;3.95;;
25531;SDS011;13429;48.816;9.118;2023-08-21T13:38:57;6.35;;;4.30;;
25531;SDS011;13429;48.816;9.118;2023-08-21T13:41:23;8.63;;;4.20;;
25531;SDS011;13429;48.816;9.118;2023-08-21T13:43:49;11.75;;;4.10;;
25531;SDS011;13429;48.816;9.118;2023-08-21T13:46:15;11.32;;;4.25;;
25531;SDS011;13429;48.816;9.118;2023-08-21T13:48:41;4.47;;;3.83;;
25531;SDS011;13429;48.816;9.118;2023-08-21T13:51:08;10.13;;;4.18;;
25531;SDS011;13429;48.816;9.118;2023-08-21T13:53:34;6.85;;;4.50;;
25531;SDS011;13429;48.816;9.118;2023-08-21T13:56:00;9.80;;;4.22;;
25531;SDS011;13429;48.816;9.118;2023-08-21T13:58:26;6.93;;;3.72;;
25531;SDS011;13429;48.816;9.118;2023-08-21T14:00:52;6.72;;;4.25;;
25531;SDS011;13429;48.816;9.118;2023-08-21T14:03:18;9.23;;;4.53;;
25531;SDS011;13429;48.816;9.118;2023-08-21T14:05:45;6.47;;;4.55;;
25531;SDS011;13429;48.816;9.118;2023-08-21T14:08:11;5.25;;;4.15;;
25531;SDS011;13429;48.816;9.118;2023-08-21T14:10:37;10.75;;;5.10;;
25531;SDS011;13429;48.816;9.118;2023-08-21T14:13:03;7.53;;;4.10;;
25531;SDS011;13429;48.816;9.118;2023-08-21T14:15:31;6.53;;;3.83;;
25531;SDS011;13429;48.816;9.118;2023-08-21T14:17:57;7.82;;;3.95;;
25531;SDS011;13429;48.816;9.118;2023-08-21T14:20:23;9.90;;;4.00;;
25531;SDS011;13429;48.816;9.118;2023-08-21T14:22:49;8.13;;;4.25;;
25531;SDS011;13429;48.816;9.118;2023-08-21T14:25:15;9.20;;;4.18;;
25531;SDS011;13429;48.816;9.118;2023-08-21T14:27:41;7.28;;;4.15;;
25531;SDS011;13429;48.816;9.118;2023-08-21T14:30:07;5.57;;;4.03;;
25531;SDS011;13429;48.816;9.118;2023-08-21T14:32:33;12.07;;;4.13;;
25531;SDS011;13429;48.816;9.118;2023-08-21T14:34:59;5.65;;;3.85;;
25531;SDS011;13429;48.816;9.118;2023-08-21T14:37:24;9.77;;;4.30;;
25531;SDS011;13429;48.816;9.118;2023-08-21T14:39:50;5.28;;;3.70;;
25531;SDS011;13429;48.816;9.118;2023-08-21T14:42:16;10.52;;;4.30;;
25531;SDS011;13429;48.816;9.118;2023-08-21T14:44:41;9.23;;;4.10;;
25531;SDS011;13429;48.816;9.118;2023-08-21T14:47:07;7.78;;;4.35;;
25531;SDS011;13429;48.816;9.118;2023-08-21T14:49:33;7.38;;;3.90;;
25531;SDS011;13429;48.816;9.118;2023-08-21T14:51:59;7.80;;;4.28;;